sensor_id;sensor_type;location;lat;lon;timestamp;pressure;altitude;pressure_sealevel;temperature;humidity
53011;BME280;42803;55.762;38.084;2023-02-25T00:02:07;97761.16;;;-4.04;100.00
53011;BME280;42803;55.762;38.084;2023-02-25T00:04:36;97761.16;;;-4.04;100.00
53011;BME280;42803;55.762;38.084;2023-02-25T00:07:07;97756.34;;;-4.01;100.00
53011;BME280;42803;55.762;38.084;2023-02-25T00:09:38;97756.69;;;-3.98;100.00
53011;BME280;42803;55.762;38.084;2023-02-25T00:12:07;97748.88;;;-4.00;100.00
53011;BME280;42803;55.762;38.084;2023-02-25T00:14:36;97747.22;;;-3.99;100.00
53011;BME280;42803;55.762;38.084;2023-02-25T00:17:07;97748.13;;;-3.99;100.00
53011;BME280;42803;55.762;38.084;2023-02-25T00:19:36;97742.47;;;-3.96;100.00
53011;BME280;42803;55.762;38.084;2023-02-25T00:22:06;97742.59;;;-3.95;100.00
53011;BME280;42803;55.762;38.084;2023-02-25T00:24:35;97736.63;;;-3.95;100.00
53011;BME280;42803;55.762;38.084;2023-02-25T00:27:05;97734.38;;;-3.92;100.00
53011;BME280;42803;55.762;38.084;2023-02-25T00:29:34;97737.53;;;-3.86;100.00
53011;BME280;42803;55.762;38.084;2023-02-25T00:32:04;97735.31;;;-3.83;100.00
53011;BME280;42803;55.762;38.084;2023-02-25T00:34:33;97731.31;;;-3.81;100.00
53011;BME280;42803;55.762;38.084;2023-02-25T00:37:02;97728.00;;;-3.80;100.00
53011;BME280;42803;55.762;38.084;2023-02-25T00:39:32;97715.72;;;-3.75;100.00
53011;BME280;42803;55.762;38.084;2023-02-25T00:42:12;97715.72;;;-3.75;100.00
53011;BME280;42803;55.762;38.084;2023-02-25T00:44:43;97721.56;;;-3.76;100.00
53011;BME280;42803;55.762;38.084;2023-02-25T00:47:13;97710.28;;;-3.78;100.00
53011;BME280;42803;55.762;38.084;2023-02-25T00:49:44;97706.84;;;-3.79;100.00
53011;BME280;42803;55.762;38.084;2023-02-25T00:52:15;97704.63;;;-3.76;100.00
53011;BME280;42803;55.762;38.084;2023-02-25T00:54:46;97706.59;;;-3.73;100.00
53011;BME280;42803;55.762;38.084;2023-02-25T00:57:16;97707.06;;;-3.69;100.00
53011;BME280;42803;55.762;38.084;2023-02-25T00:59:45;97705.53;;;-3.67;100.00
53011;BME280;42803;55.762;38.084;2023-02-25T01:02:14;97710.97;;;-3.63;100.00
53011;BME280;42803;55.762;38.084;2023-02-25T01:04:43;97711.84;;;-3.63;100.00
53011;BME280;42803;55.762;38.084;2023-02-25T01:07:13;97698.06;;;-3.65;100.00
53011;BME280;42803;55.762;38.084;2023-02-25T01:09:43;97700.63;;;-3.65;100.00
53011;BME280;42803;55.762;38.084;2023-02-25T01:12:12;97694.94;;;-3.62;100.00
53011;BME280;42803;55.762;38.084;2023-02-25T01:14:43;97700.44;;;-3.67;100.00
53011;BME280;42803;55.762;38.084;2023-02-25T01:17:12;97694.78;;;-3.64;100.00
53011;BME280;42803;55.762;38.084;2023-02-25T01:19:41;97694.00;;;-3.63;100.00
53011;BME280;42803;55.762;38.084;2023-02-25T01:22:13;97692.69;;;-3.59;100.00
53011;BME280;42803;55.762;38.084;2023-02-25T01:24:42;97691.50;;;-3.54;100.00
53011;BME280;42803;55.762;38.084;2023-02-25T01:27:12;97694.06;;;-3.54;100.00
53011;BME280;42803;55.762;38.084;2023-02-25T01:29:44;97694.78;;;-3.55;100.00
53011;BME280;42803;55.762;38.084;2023-02-25T01:32:14;97697.34;;;-3.55;100.00
53011;BME280;42803;55.762;38.084;2023-02-25T01:34:44;97691.19;;;-3.57;100.00
53011;BME280;42803;55.762;38.084;2023-02-25T01:37:13;97692.56;;;-3.52;100.00
53011;BME280;42803;55.762;38.084;2023-02-25T01:39:42;97682.34;;;-3.52;100.00
53011;BME280;42803;55.762;38.084;2023-02-25T01:42:13;97683.44;;;-3.50;100.00
53011;BME280;42803;55.762;38.084;2023-02-25T01:48:12;97680.25;;;-3.48;100.00
53011;BME280;42803;55.762;38.084;2023-02-25T01:50:48;97682.84;;;-3.39;100.00
53011;BME280;42803;55.762;38.084;2023-02-25T01:53:21;97680.00;;;-3.33;100.00
53011;BME280;42803;55.762;38.084;2023-02-25T01:55:51;97673.56;;;-3.30;100.00
53011;BME280;42803;55.762;38.084;2023-02-25T01:58:21;97676.25;;;-3.28;100.00
53011;BME280;42803;55.762;38.084;2023-02-25T02:00:50;97675.66;;;-3.26;100.00
53011;BME280;42803;55.762;38.084;2023-02-25T02:03:24;97677.78;;;-3.22;100.00
53011;BME280;42803;55.762;38.084;2023-02-25T02:06:04;97671.03;;;-3.21;100.00
53011;BME280;42803;55.762;38.084;2023-02-25T02:08:36;97666.09;;;-3.20;100.00
53011;BME280;42803;55.762;38.084;2023-02-25T02:11:06;97665.31;;;-3.19;100.00
53011;BME280;42803;55.762;38.084;2023-02-25T02:13:37;97671.91;;;-3.21;100.00
53011;BME280;42803;55.762;38.084;2023-02-25T02:16:27;97665.03;;;-3.22;100.00
53011;BME280;42803;55.762;38.084;2023-02-25T02:19:14;97662.63;;;-3.20;100.00
53011;BME280;42803;55.762;38.084;2023-02-25T02:21:58;97660.97;;;-3.20;100.00
53011;BME280;42803;55.762;38.084;2023-02-25T02:24:44;97660.97;;;-3.20;100.00
53011;BME280;42803;55.762;38.084;2023-02-25T02:27:22;97655.88;;;-3.20;100.00
53011;BME280;42803;55.762;38.084;2023-02-25T02:30:16;97652.13;;;-3.23;100.00
53011;BME280;42803;55.762;38.084;2023-02-25T02:32:51;97649.72;;;-3.22;100.00
53011;BME280;42803;55.762;38.084;2023-02-25T02:35:33;97654.38;;;-3.17;100.00
53011;BME280;42803;55.762;38.084;2023-02-25T02:38:11;97650.91;;;-3.18;100.00
53011;BME280;42803;55.762;38.084;2023-02-25T02:40:51;97655.25;;;-3.17;100.00
53011;BME280;42803;55.762;38.084;2023-02-25T02:43:33;97651.50;;;-3.21;100.00
53011;BME280;42803;55.762;38.084;2023-02-25T02:46:09;97647.78;;;-3.15;100.00
53011;BME280;42803;55.762;38.084;2023-02-25T02:48:47;97655.00;;;-3.11;100.00
53011;BME280;42803;55.762;38.084;2023-02-25T02:51:21;97643.56;;;-3.15;100.00
53011;BME280;42803;55.762;38.084;2023-02-25T02:53:54;97636.06;;;-3.13;100.00
53011;BME280;42803;55.762;38.084;2023-02-25T02:56:26;97631.13;;;-3.12;100.00
53011;BME280;42803;55.762;38.084;2023-02-25T02:59:00;97634.25;;;-3.14;100.00
53011;BME280;42803;55.762;38.084;2023-02-25T03:01:36;97637.25;;;-3.19;100.00
53011;BME280;42803;55.762;38.084;2023-02-25T03:04:11;97630.38;;;-3.20;100.00
53011;BME280;42803;55.762;38.084;2023-02-25T03:06:44;97634.72;;;-3.19;100.00
53011;BME280;42803;55.762;38.084;2023-02-25T03:09:16;97632.91;;;-3.20;100.00
53011;BME280;42803;55.762;38.084;2023-02-25T03:11:48;97624.50;;;-3.19;100.00
53011;BME280;42803;55.762;38.084;2023-02-25T03:14:18;97623.75;;;-3.17;100.00
53011;BME280;42803;55.762;38.084;2023-02-25T03:16:51;97615.19;;;-3.18;100.00
53011;BME280;42803;55.762;38.084;2023-02-25T03:19:24;97623.59;;;-3.19;100.00
53011;BME280;42803;55.762;38.084;2023-02-25T03:22:00;97607.25;;;-3.21;100.00
53011;BME280;42803;55.762;38.084;2023-02-25T03:24:35;97619.41;;;-3.19;100.00
53011;BME280;42803;55.762;38.084;2023-02-25T03:27:22;97617.44;;;-3.21;100.00
53011;BME280;42803;55.762;38.084;2023-02-25T03:30:01;97618.06;;;-3.24;100.00
53011;BME280;42803;55.762;38.084;2023-02-25T03:32:34;97615.97;;;-3.28;100.00
53011;BME280;42803;55.762;38.084;2023-02-25T03:35:08;97615.47;;;-3.32;100.00
53011;BME280;42803;55.762;38.084;2023-02-25T03:37:39;97615.03;;;-3.37;100.00
53011;BME280;42803;55.762;38.084;2023-02-25T03:40:13;97618.66;;;-3.35;100.00
53011;BME280;42803;55.762;38.084;2023-02-25T03:42:45;97615.94;;;-3.36;100.00
53011;BME280;42803;55.762;38.084;2023-02-25T03:45:18;97617.44;;;-3.38;100.00
53011;BME280;42803;55.762;38.084;2023-02-25T03:47:50;97616.53;;;-3.39;100.00
53011;BME280;42803;55.762;38.084;2023-02-25T03:50:24;97616.53;;;-3.39;100.00
53011;BME280;42803;55.762;38.084;2023-02-25T03:52:58;97608.13;;;-3.38;100.00
53011;BME280;42803;55.762;38.084;2023-02-25T03:56:01;97608.13;;;-3.38;100.00
53011;BME280;42803;55.762;38.084;2023-02-25T03:58:36;97608.13;;;-3.38;100.00
53011;BME280;42803;55.762;38.084;2023-02-25T04:01:09;97612.66;;;-3.35;100.00
53011;BME280;42803;55.762;38.084;2023-02-25T04:03:43;97606.94;;;-3.33;100.00
53011;BME280;42803;55.762;38.084;2023-02-25T04:06:14;97613.09;;;-3.31;100.00
53011;BME280;42803;55.762;38.084;2023-02-25T04:08:44;97608.75;;;-3.32;100.00
53011;BME280;42803;55.762;38.084;2023-02-25T04:11:13;97617.44;;;-3.30;100.00
53011;BME280;42803;55.762;38.084;2023-02-25T04:13:43;97612.34;;;-3.30;100.00
53011;BME280;42803;55.762;38.084;2023-02-25T04:16:12;97608.00;;;-3.31;100.00
53011;BME280;42803;55.762;38.084;2023-02-25T04:18:41;97606.78;;;-3.26;100.00
53011;BME280;42803;55.762;38.084;2023-02-25T04:21:25;97610.41;;;-3.24;100.00
53011;BME280;42803;55.762;38.084;2023-02-25T04:23:54;97608.13;;;-3.21;100.00
53011;BME280;42803;55.762;38.084;2023-02-25T04:26:24;97608.63;;;-3.16;100.00
53011;BME280;42803;55.762;38.084;2023-02-25T04:28:53;97613.84;;;-3.14;100.00
53011;BME280;42803;55.762;38.084;2023-02-25T04:31:23;97604.53;;;-3.14;100.00
53011;BME280;42803;55.762;38.084;2023-02-25T04:33:52;97608.47;;;-3.09;100.00
53011;BME280;42803;55.762;38.084;2023-02-25T04:36:27;97607.25;;;-3.04;100.00
53011;BME280;42803;55.762;38.084;2023-02-25T04:38:58;97609.94;;;-3.02;100.00
53011;BME280;42803;55.762;38.084;2023-02-25T04:41:29;97607.25;;;-2.95;100.00
53011;BME280;42803;55.762;38.084;2023-02-25T04:43:58;97599.31;;;-2.89;100.00
53011;BME280;42803;55.762;38.084;2023-02-25T04:46:28;97603.94;;;-2.85;100.00
53011;BME280;42803;55.762;38.084;2023-02-25T04:48:57;97617.91;;;-2.82;100.00
53011;BME280;42803;55.762;38.084;2023-02-25T04:51:28;97608.44;;;-2.83;100.00
53011;BME280;42803;55.762;38.084;2023-02-25T04:53:57;97605.72;;;-2.76;100.00
53011;BME280;42803;55.762;38.084;2023-02-25T04:56:26;97609.66;;;-2.71;100.00
53011;BME280;42803;55.762;38.084;2023-02-25T04:58:56;97604.78;;;-2.50;100.00
53011;BME280;42803;55.762;38.084;2023-02-25T05:01:25;97608.50;;;-2.38;100.00
53011;BME280;42803;55.762;38.084;2023-02-25T05:03:54;97612.25;;;-2.34;100.00
53011;BME280;42803;55.762;38.084;2023-02-25T05:06:24;97617.81;;;-2.38;100.00
53011;BME280;42803;55.762;38.084;2023-02-25T05:08:55;97627.91;;;-2.40;100.00
53011;BME280;42803;55.762;38.084;2023-02-25T05:11:26;97624.91;;;-2.36;100.00
53011;BME280;42803;55.762;38.084;2023-02-25T05:13:58;97622.19;;;-2.29;100.00
53011;BME280;42803;55.762;38.084;2023-02-25T05:16:28;97621.97;;;-2.22;100.00
53011;BME280;42803;55.762;38.084;2023-02-25T05:18:57;97626.34;;;-2.21;100.00
53011;BME280;42803;55.762;38.084;2023-02-25T05:21:26;97618.34;;;-2.15;100.00
53011;BME280;42803;55.762;38.084;2023-02-25T05:23:57;97614.88;;;-2.07;100.00
53011;BME280;42803;55.762;38.084;2023-02-25T05:26:26;97617.88;;;-2.02;100.00
53011;BME280;42803;55.762;38.084;2023-02-25T05:28:56;97621.59;;;-1.90;100.00
53011;BME280;42803;55.762;38.084;2023-02-25T05:31:25;97626.31;;;-1.76;100.00
53011;BME280;42803;55.762;38.084;2023-02-25T05:33:55;97624.50;;;-1.77;100.00
53011;BME280;42803;55.762;38.084;2023-02-25T05:36:24;97620.03;;;-1.79;100.00
53011;BME280;42803;55.762;38.084;2023-02-25T05:38:56;97617.75;;;-1.76;100.00
53011;BME280;42803;55.762;38.084;2023-02-25T05:41:29;97613.53;;;-1.76;100.00
53011;BME280;42803;55.762;38.084;2023-02-25T05:43:59;97615.34;;;-1.75;100.00
53011;BME280;42803;55.762;38.084;2023-02-25T05:46:30;97618.03;;;-1.73;100.00
53011;BME280;42803;55.762;38.084;2023-02-25T05:48:59;97608.09;;;-1.70;100.00
53011;BME280;42803;55.762;38.084;2023-02-25T05:51:28;97614.88;;;-1.70;100.00
53011;BME280;42803;55.762;38.084;2023-02-25T05:53:58;97614.41;;;-1.66;100.00
53011;BME280;42803;55.762;38.084;2023-02-25T05:56:28;97609.81;;;-1.60;100.00
53011;BME280;42803;55.762;38.084;2023-02-25T05:58:59;97619.16;;;-1.61;100.00
53011;BME280;42803;55.762;38.084;2023-02-25T06:01:28;97629.69;;;-1.58;100.00
53011;BME280;42803;55.762;38.084;2023-02-25T06:03:58;97630.41;;;-1.50;100.00
53011;BME280;42803;55.762;38.084;2023-02-25T06:06:29;97633.25;;;-1.47;100.00
53011;BME280;42803;55.762;38.084;2023-02-25T06:09:00;97631.16;;;-1.51;100.00
53011;BME280;42803;55.762;38.084;2023-02-25T06:11:32;97629.19;;;-1.45;100.00
53011;BME280;42803;55.762;38.084;2023-02-25T06:14:01;97624.63;;;-1.39;100.00
53011;BME280;42803;55.762;38.084;2023-02-25T06:16:31;97635.97;;;-1.27;100.00
53011;BME280;42803;55.762;38.084;2023-02-25T06:19:00;97644.13;;;-1.31;100.00
53011;BME280;42803;55.762;38.084;2023-02-25T06:21:29;97633.34;;;-1.37;100.00
53011;BME280;42803;55.762;38.084;2023-02-25T06:24:01;97631.97;;;-1.33;100.00
53011;BME280;42803;55.762;38.084;2023-02-25T06:26:32;97630.66;;;-1.19;100.00
53011;BME280;42803;55.762;38.084;2023-02-25T06:29:02;97619.44;;;-1.11;100.00
53011;BME280;42803;55.762;38.084;2023-02-25T06:31:31;97627.22;;;-1.01;100.00
53011;BME280;42803;55.762;38.084;2023-02-25T06:34:01;97632.63;;;-0.98;100.00
53011;BME280;42803;55.762;38.084;2023-02-25T06:36:30;97634.53;;;-0.95;100.00
53011;BME280;42803;55.762;38.084;2023-02-25T06:39:01;97628.19;;;-0.90;100.00
53011;BME280;42803;55.762;38.084;2023-02-25T06:41:30;97625.56;;;-0.82;100.00
53011;BME280;42803;55.762;38.084;2023-02-25T06:43:59;97625.41;;;-0.64;100.00
53011;BME280;42803;55.762;38.084;2023-02-25T06:46:28;97629.75;;;-0.44;100.00
53011;BME280;42803;55.762;38.084;2023-02-25T06:48:57;97629.91;;;-0.33;100.00
53011;BME280;42803;55.762;38.084;2023-02-25T06:51:26;97632.00;;;-0.29;100.00
53011;BME280;42803;55.762;38.084;2023-02-25T06:53:55;97633.78;;;-0.28;100.00
53011;BME280;42803;55.762;38.084;2023-02-25T06:56:26;97632.38;;;-0.34;100.00
53011;BME280;42803;55.762;38.084;2023-02-25T06:58:56;97628.88;;;-0.35;100.00
53011;BME280;42803;55.762;38.084;2023-02-25T07:01:26;97628.88;;;-0.35;100.00
53011;BME280;42803;55.762;38.084;2023-02-25T07:03:55;97629.66;;;-0.36;100.00
53011;BME280;42803;55.762;38.084;2023-02-25T07:06:25;97634.00;;;-0.35;100.00
53011;BME280;42803;55.762;38.084;2023-02-25T07:08:54;97639.38;;;-0.42;100.00
53011;BME280;42803;55.762;38.084;2023-02-25T07:11:29;97630.91;;;-0.41;100.00
53011;BME280;42803;55.762;38.084;2023-02-25T07:14:02;97636.31;;;-0.38;100.00
53011;BME280;42803;55.762;38.084;2023-02-25T07:16:31;97634.44;;;-0.30;100.00
53011;BME280;42803;55.762;38.084;2023-02-25T07:19:01;97635.50;;;-0.18;100.00
53011;BME280;42803;55.762;38.084;2023-02-25T07:21:31;97635.03;;;-0.04;100.00
53011;BME280;42803;55.762;38.084;2023-02-25T07:24:00;97622.13;;;0.05;100.00
53011;BME280;42803;55.762;38.084;2023-02-25T07:26:31;97628.81;;;0.13;100.00
53011;BME280;42803;55.762;38.084;2023-02-25T07:29:00;97631.38;;;0.13;100.00
53011;BME280;42803;55.762;38.084;2023-02-25T07:31:29;97627.00;;;0.12;100.00
53011;BME280;42803;55.762;38.084;2023-02-25T07:33:59;97624.44;;;0.12;100.00
53011;BME280;42803;55.762;38.084;2023-02-25T07:36:31;97627.78;;;0.21;100.00
53011;BME280;42803;55.762;38.084;2023-02-25T07:39:03;97626.44;;;0.35;100.00
53011;BME280;42803;55.762;38.084;2023-02-25T07:41:34;97626.56;;;0.47;100.00
53011;BME280;42803;55.762;38.084;2023-02-25T07:44:05;97634.00;;;0.64;100.00
53011;BME280;42803;55.762;38.084;2023-02-25T07:46:34;97641.72;;;0.75;100.00
53011;BME280;42803;55.762;38.084;2023-02-25T07:49:04;97632.09;;;0.82;100.00
53011;BME280;42803;55.762;38.084;2023-02-25T07:51:33;97636.34;;;0.92;100.00
53011;BME280;42803;55.762;38.084;2023-02-25T07:54:02;97629.66;;;1.04;100.00
53011;BME280;42803;55.762;38.084;2023-02-25T07:56:32;97632.25;;;1.04;100.00
53011;BME280;42803;55.762;38.084;2023-02-25T07:59:02;97633.00;;;1.03;100.00
53011;BME280;42803;55.762;38.084;2023-02-25T08:01:32;97637.63;;;0.87;100.00
53011;BME280;42803;55.762;38.084;2023-02-25T08:04:03;97633.25;;;0.86;100.00
53011;BME280;42803;55.762;38.084;2023-02-25T08:06:34;97629.56;;;0.92;100.00
53011;BME280;42803;55.762;38.084;2023-02-25T08:09:04;97633.50;;;0.99;100.00
53011;BME280;42803;55.762;38.084;2023-02-25T08:11:33;97631.81;;;1.20;100.00
53011;BME280;42803;55.762;38.084;2023-02-25T08:14:04;97622.75;;;1.56;100.00
53011;BME280;42803;55.762;38.084;2023-02-25T08:16:33;97625.22;;;1.86;100.00
53011;BME280;42803;55.762;38.084;2023-02-25T08:19:02;97631.41;;;1.78;100.00
53011;BME280;42803;55.762;38.084;2023-02-25T08:21:32;97631.69;;;1.71;100.00
53011;BME280;42803;55.762;38.084;2023-02-25T08:24:01;97621.84;;;1.55;100.00
53011;BME280;42803;55.762;38.084;2023-02-25T08:26:30;97622.34;;;1.61;100.00
53011;BME280;42803;55.762;38.084;2023-02-25T08:28:59;97630.81;;;1.70;100.00
53011;BME280;42803;55.762;38.084;2023-02-25T08:31:30;97625.00;;;1.83;100.00
53011;BME280;42803;55.762;38.084;2023-02-25T08:33:59;97632.47;;;2.02;100.00
53011;BME280;42803;55.762;38.084;2023-02-25T08:36:29;97632.06;;;2.08;100.00
53011;BME280;42803;55.762;38.084;2023-02-25T08:38:59;97627.50;;;2.26;100.00
53011;BME280;42803;55.762;38.084;2023-02-25T08:41:29;97636.88;;;2.47;100.00
53011;BME280;42803;55.762;38.084;2023-02-25T08:43:58;97629.19;;;2.59;99.88
53011;BME280;42803;55.762;38.084;2023-02-25T08:46:31;97637.09;;;2.50;99.18
53011;BME280;42803;55.762;38.084;2023-02-25T08:49:01;97642.84;;;2.58;99.31
53011;BME280;42803;55.762;38.084;2023-02-25T08:51:31;97635.31;;;2.49;99.40
53011;BME280;42803;55.762;38.084;2023-02-25T08:54:06;97634.91;;;2.33;99.48
53011;BME280;42803;55.762;38.084;2023-02-25T08:56:36;97634.91;;;2.33;99.48
53011;BME280;42803;55.762;38.084;2023-02-25T08:59:13;97644.13;;;2.19;100.00
53011;BME280;42803;55.762;38.084;2023-02-25T09:01:44;97641.09;;;2.25;100.00
53011;BME280;42803;55.762;38.084;2023-02-25T09:04:18;97636.22;;;2.28;100.00
53011;BME280;42803;55.762;38.084;2023-02-25T09:06:49;97641.09;;;2.25;100.00
53011;BME280;42803;55.762;38.084;2023-02-25T09:09:20;97647.94;;;2.24;100.00
53011;BME280;42803;55.762;38.084;2023-02-25T09:11:50;97642.97;;;2.15;100.00
53011;BME280;42803;55.762;38.084;2023-02-25T09:14:20;97652.22;;;2.13;100.00
53011;BME280;42803;55.762;38.084;2023-02-25T09:16:51;97651.50;;;2.04;100.00
53011;BME280;42803;55.762;38.084;2023-02-25T09:19:20;97652.34;;;1.93;100.00
53011;BME280;42803;55.762;38.084;2023-02-25T09:21:49;97651.78;;;1.97;100.00
53011;BME280;42803;55.762;38.084;2023-02-25T09:24:18;97656.31;;;1.89;100.00
53011;BME280;42803;55.762;38.084;2023-02-25T09:26:47;97652.34;;;1.93;100.00
53011;BME280;42803;55.762;38.084;2023-02-25T09:29:17;97648.50;;;1.88;100.00
53011;BME280;42803;55.762;38.084;2023-02-25T09:31:46;97651.44;;;1.92;100.00
53011;BME280;42803;55.762;38.084;2023-02-25T09:34:17;97654.88;;;2.03;100.00
53011;BME280;42803;55.762;38.084;2023-02-25T09:36:46;97654.38;;;1.97;100.00
53011;BME280;42803;55.762;38.084;2023-02-25T09:39:16;97660.59;;;1.89;100.00
53011;BME280;42803;55.762;38.084;2023-02-25T09:41:49;97661.31;;;1.98;100.00
53011;BME280;42803;55.762;38.084;2023-02-25T09:44:26;97661.31;;;1.98;100.00
53011;BME280;42803;55.762;38.084;2023-02-25T09:47:01;97657.44;;;2.03;100.00
53011;BME280;42803;55.762;38.084;2023-02-25T09:49:34;97650.56;;;2.36;100.00
53011;BME280;42803;55.762;38.084;2023-02-25T09:52:11;97653.59;;;2.52;100.00
53011;BME280;42803;55.762;38.084;2023-02-25T09:54:44;97638.63;;;2.70;100.00
53011;BME280;42803;55.762;38.084;2023-02-25T09:57:17;97642.28;;;2.84;100.00
53011;BME280;42803;55.762;38.084;2023-02-25T09:59:47;97640.72;;;2.86;100.00
53011;BME280;42803;55.762;38.084;2023-02-25T10:02:24;97640.66;;;2.74;100.00
53011;BME280;42803;55.762;38.084;2023-02-25T10:05:10;97633.97;;;2.76;100.00
53011;BME280;42803;55.762;38.084;2023-02-25T10:07:52;97630.38;;;2.74;100.00
53011;BME280;42803;55.762;38.084;2023-02-25T10:10:28;97630.81;;;2.68;100.00
53011;BME280;42803;55.762;38.084;2023-02-25T10:13:05;97627.28;;;2.90;100.00
53011;BME280;42803;55.762;38.084;2023-02-25T10:15:50;97617.69;;;2.99;100.00
53011;BME280;42803;55.762;38.084;2023-02-25T10:18:31;97612.41;;;2.98;100.00
53011;BME280;42803;55.762;38.084;2023-02-25T10:21:16;97622.50;;;2.95;100.00
53011;BME280;42803;55.762;38.084;2023-02-25T10:24:02;97625.03;;;2.83;100.00
53011;BME280;42803;55.762;38.084;2023-02-25T10:26:40;97618.78;;;2.91;100.00
53011;BME280;42803;55.762;38.084;2023-02-25T10:29:18;97629.09;;;2.91;100.00
53011;BME280;42803;55.762;38.084;2023-02-25T10:31:48;97625.28;;;2.98;100.00
53011;BME280;42803;55.762;38.084;2023-02-25T10:34:22;97626.78;;;3.06;100.00
53011;BME280;42803;55.762;38.084;2023-02-25T10:36:55;97632.63;;;3.15;100.00
53011;BME280;42803;55.762;38.084;2023-02-25T10:39:26;97641.88;;;3.01;99.44
53011;BME280;42803;55.762;38.084;2023-02-25T10:41:57;97636.97;;;3.04;100.00
53011;BME280;42803;55.762;38.084;2023-02-25T10:44:26;97641.47;;;3.18;100.00
53011;BME280;42803;55.762;38.084;2023-02-25T10:47:00;97639.50;;;3.38;99.74
53011;BME280;42803;55.762;38.084;2023-02-25T10:49:31;97635.47;;;3.77;99.13
53011;BME280;42803;55.762;38.084;2023-02-25T10:52:14;97628.63;;;4.01;97.18
53011;BME280;42803;55.762;38.084;2023-02-25T10:54:45;97637.03;;;3.98;95.31
53011;BME280;42803;55.762;38.084;2023-02-25T10:57:17;97645.56;;;3.50;95.54
53011;BME280;42803;55.762;38.084;2023-02-25T10:59:58;97645.59;;;3.05;96.63
53011;BME280;42803;55.762;38.084;2023-02-25T11:02:35;97648.09;;;3.15;99.03
53011;BME280;42803;55.762;38.084;2023-02-25T11:05:28;97644.78;;;2.94;98.72
53011;BME280;42803;55.762;38.084;2023-02-25T11:07:59;97663.94;;;2.64;99.60
53011;BME280;42803;55.762;38.084;2023-02-25T11:10:29;97664.34;;;2.36;100.00
53011;BME280;42803;55.762;38.084;2023-02-25T11:12:59;97674.84;;;2.17;100.00
53011;BME280;42803;55.762;38.084;2023-02-25T11:15:32;97666.44;;;1.98;100.00
53011;BME280;42803;55.762;38.084;2023-02-25T11:18:20;97678.47;;;1.87;100.00
53011;BME280;42803;55.762;38.084;2023-02-25T11:20:51;97680.66;;;1.83;100.00
53011;BME280;42803;55.762;38.084;2023-02-25T11:23:28;97668.56;;;1.82;100.00
53011;BME280;42803;55.762;38.084;2023-02-25T11:25:59;97673.19;;;1.86;100.00
53011;BME280;42803;55.762;38.084;2023-02-25T11:28:31;97671.13;;;1.92;100.00
53011;BME280;42803;55.762;38.084;2023-02-25T11:31:10;97671.56;;;2.08;100.00
53011;BME280;42803;55.762;38.084;2023-02-25T11:33:43;97666.91;;;2.14;100.00
53011;BME280;42803;55.762;38.084;2023-02-25T11:36:19;97665.34;;;2.16;100.00
53011;BME280;42803;55.762;38.084;2023-02-25T11:39:05;97666.81;;;2.35;100.00
53011;BME280;42803;55.762;38.084;2023-02-25T11:41:34;97653.34;;;2.49;100.00
53011;BME280;42803;55.762;38.084;2023-02-25T11:44:17;97662.75;;;2.49;100.00
53011;BME280;42803;55.762;38.084;2023-02-25T11:47:00;97657.53;;;2.37;100.00
53011;BME280;42803;55.762;38.084;2023-02-25T11:49:47;97670.72;;;2.30;100.00
53011;BME280;42803;55.762;38.084;2023-02-25T11:52:24;97667.09;;;2.28;100.00
53011;BME280;42803;55.762;38.084;2023-02-25T11:55:06;97671.47;;;2.29;100.00
53011;BME280;42803;55.762;38.084;2023-02-25T11:57:48;97674.28;;;2.32;100.00
53011;BME280;42803;55.762;38.084;2023-02-25T12:00:25;97671.78;;;2.22;100.00
53011;BME280;42803;55.762;38.084;2023-02-25T12:03:16;97674.09;;;2.18;100.00
53011;BME280;42803;55.762;38.084;2023-02-25T12:06:03;97679.09;;;2.17;100.00
53011;BME280;42803;55.762;38.084;2023-02-25T12:08:54;97670.78;;;2.09;100.00
53011;BME280;42803;55.762;38.084;2023-02-25T12:11:41;97661.53;;;2.11;100.00
53011;BME280;42803;55.762;38.084;2023-02-25T12:17:57;97671.03;;;2.12;100.00
53011;BME280;42803;55.762;38.084;2023-02-25T12:20:53;97676.59;;;2.07;100.00
53011;BME280;42803;55.762;38.084;2023-02-25T12:23:55;97681.59;;;2.05;100.00
53011;BME280;42803;55.762;38.084;2023-02-25T12:26:45;97683.28;;;2.05;100.00
53011;BME280;42803;55.762;38.084;2023-02-25T12:29:23;97688.78;;;2.09;100.00
53011;BME280;42803;55.762;38.084;2023-02-25T12:32:05;97695.50;;;2.07;100.00
53011;BME280;42803;55.762;38.084;2023-02-25T12:35:06;97682.81;;;1.99;100.00
53011;BME280;42803;55.762;38.084;2023-02-25T12:40:59;97690.38;;;1.97;100.00
53011;BME280;42803;55.762;38.084;2023-02-25T12:43:38;97680.00;;;1.95;100.00
53011;BME280;42803;55.762;38.084;2023-02-25T12:46:20;97687.03;;;1.98;100.00
53011;BME280;42803;55.762;38.084;2023-02-25T12:49:29;97687.97;;;1.99;100.00
53011;BME280;42803;55.762;38.084;2023-02-25T12:52:17;97685.75;;;2.03;100.00
53011;BME280;42803;55.762;38.084;2023-02-25T12:58:05;97697.75;;;1.92;100.00
53011;BME280;42803;55.762;38.084;2023-02-25T13:09:54;97700.75;;;1.66;100.00
53011;BME280;42803;55.762;38.084;2023-02-25T13:12:46;97698.56;;;1.71;100.00
53011;BME280;42803;55.762;38.084;2023-02-25T13:15:24;97693.03;;;1.77;100.00
53011;BME280;42803;55.762;38.084;2023-02-25T13:18:08;97695.63;;;1.66;100.00
53011;BME280;42803;55.762;38.084;2023-02-25T13:20:52;97696.78;;;1.60;100.00
53011;BME280;42803;55.762;38.084;2023-02-25T13:26:47;97699.41;;;1.39;100.00
53011;BME280;42803;55.762;38.084;2023-02-25T13:29:37;97698.13;;;1.34;100.00
53011;BME280;42803;55.762;38.084;2023-02-25T13:32:20;97698.00;;;1.23;100.00
53011;BME280;42803;55.762;38.084;2023-02-25T13:35:09;97697.22;;;1.24;100.00
53011;BME280;42803;55.762;38.084;2023-02-25T13:37:41;97699.03;;;1.35;100.00
53011;BME280;42803;55.762;38.084;2023-02-25T13:40:30;97696.69;;;1.48;100.00
53011;BME280;42803;55.762;38.084;2023-02-25T13:43:18;97696.94;;;1.51;100.00
53011;BME280;42803;55.762;38.084;2023-02-25T13:45:58;97700.44;;;1.41;100.00